Time;durP1;ratioP1;P1;durP2;ratioP2;P2;SDS_P1;SDS_P2;PMS_P1;PMS_P2;Temp;Humidity;BMP_temperature;BMP_pressure;BME280_temperature;BME280_humidity;BME280_pressure;Samples;Min_cycle;Max_cycle;Signal;HPM_P1;HPM_P2
2022/06/21 00:02:03;;;;;;;12.07;6.07;;;;;;;11.66;97.05;101551.94;5190148;28;20506;-71
2022/06/21 00:04:34;;;;;;;12.30;6.20;;;;;;;11.67;96.78;101547.44;5187080;28;20588;-71
2022/06/21 00:07:10;;;;;;;12.48;6.78;;;;;;;11.73;97.23;101539.00;5206763;28;20026;-72
2022/06/21 00:09:41;;;;;;;13.88;6.45;;;;;;;11.84;98.93;101546.28;5196463;28;20034;-72
2022/06/21 00:12:13;;;;;;;15.00;7.25;;;;;;;11.65;97.58;101552.91;5197310;28;20144;-71
2022/06/21 00:14:44;;;;;;;13.60;6.15;;;;;;;11.73;99.43;101549.69;5194364;28;20591;-72
2022/06/21 00:17:19;;;;;;;11.50;6.10;;;;;;;11.66;97.51;101549.28;5205812;28;20140;-72
2022/06/21 00:19:51;;;;;;;11.38;6.55;;;;;;;11.55;98.57;101546.50;5206277;28;20046;-71
2022/06/21 00:22:22;;;;;;;10.68;5.82;;;;;;;11.45;96.79;101546.28;5201268;28;20033;-72
2022/06/21 00:24:53;;;;;;;9.75;5.60;;;;;;;11.52;99.13;101552.03;5198156;28;20127;-71
2022/06/21 00:27:25;;;;;;;10.38;5.82;;;;;;;11.48;99.18;101550.53;5196169;28;20057;-72
2022/06/21 00:29:56;;;;;;;12.23;6.10;;;;;;;11.47;100.00;101554.19;5190990;28;20105;-72
2022/06/21 00:32:27;;;;;;;10.57;6.35;;;;;;;11.36;99.10;101541.56;5191774;28;20475;-72
2022/06/21 00:34:58;;;;;;;13.05;6.82;;;;;;;11.28;98.83;101538.56;5195166;28;20112;-72
2022/06/21 00:37:31;;;;;;;10.85;5.93;;;;;;;11.35;100.00;101535.38;5195385;28;20029;-71
2022/06/21 00:40:15;;;;;;;10.73;6.28;;;;;;;11.20;100.00;101533.75;5197704;28;20045;-72
2022/06/21 00:43:06;;;;;;;13.45;6.97;;;;;;;11.14;99.78;101544.81;5195959;28;20088;-71
2022/06/21 00:45:41;;;;;;;15.15;6.70;;;;;;;11.07;99.83;101544.41;5198154;28;20171;-71
2022/06/21 00:48:23;;;;;;;10.20;6.30;;;;;;;11.03;100.00;101544.72;5197924;28;20099;-71
2022/06/21 00:51:14;;;;;;;11.70;6.57;;;;;;;11.04;100.00;101544.59;5197246;28;20034;-71
2022/06/21 00:54:11;;;;;;;11.25;6.00;;;;;;;10.99;99.37;101538.72;5195468;28;20057;-71
2022/06/21 00:56:52;;;;;;;9.90;6.18;;;;;;;11.07;100.00;101531.03;5196954;28;20036;-71
2022/06/21 00:59:29;;;;;;;11.77;6.68;;;;;;;10.99;100.00;101534.22;5199214;28;20029;-71
2022/06/21 01:02:05;;;;;;;13.57;6.85;;;;;;;11.07;100.00;101525.69;5198410;28;20453;-71
2022/06/21 01:04:40;;;;;;;11.85;6.82;;;;;;;11.05;100.00;101511.59;5199814;28;20029;-71
2022/06/21 01:07:12;;;;;;;12.68;7.50;;;;;;;11.05;100.00;101506.25;5208427;28;20045;-71
2022/06/21 01:09:54;;;;;;;12.23;7.07;;;;;;;11.09;100.00;101498.91;5205779;28;20057;-71
2022/06/21 01:12:31;;;;;;;12.95;7.32;;;;;;;11.07;100.00;101493.66;5198975;28;20041;-72
2022/06/21 01:15:10;;;;;;;11.73;6.88;;;;;;;11.14;100.00;101497.63;5202796;28;20062;-71
2022/06/21 01:17:41;;;;;;;13.00;7.68;;;;;;;11.11;100.00;101500.50;5196656;28;20177;-71
2022/06/21 01:20:20;;;;;;;13.63;8.23;;;;;;;11.06;100.00;101497.28;5200251;28;20054;-71
2022/06/21 01:23:16;;;;;;;16.30;8.35;;;;;;;11.04;100.00;101509.03;5195700;28;20761;-71
2022/06/21 01:26:09;;;;;;;15.88;7.57;;;;;;;11.01;100.00;101503.88;5198265;28;20530;-72
2022/06/21 01:28:42;;;;;;;13.45;7.70;;;;;;;10.97;100.00;101503.25;5195554;28;20030;-71
2022/06/21 01:31:13;;;;;;;13.05;7.30;;;;;;;11.03;100.00;101497.50;5193143;28;20032;-72
2022/06/21 01:33:45;;;;;;;13.48;7.72;;;;;;;10.95;100.00;101499.84;5195135;28;20399;-71
2022/06/21 01:36:24;;;;;;;14.32;7.75;;;;;;;10.89;100.00;101495.78;5193036;28;20117;-72
2022/06/21 01:39:08;;;;;;;13.98;7.50;;;;;;;10.96;100.00;101496.19;5194569;28;20040;-71
2022/06/21 01:41:45;;;;;;;15.63;8.07;;;;;;;10.82;100.00;101507.81;5199201;28;20046;-71
2022/06/21 01:44:24;;;;;;;13.50;8.18;;;;;;;10.81;100.00;101503.41;5195506;28;20043;-71
2022/06/21 01:46:58;;;;;;;14.30;8.57;;;;;;;10.93;100.00;101491.06;5196690;28;20053;-71
2022/06/21 01:49:33;;;;;;;15.40;7.78;;;;;;;10.83;100.00;101496.16;5195130;28;20026;-71
2022/06/21 01:52:11;;;;;;;12.50;8.30;;;;;;;10.92;100.00;101492.88;5194142;28;20045;-71
2022/06/21 01:54:46;;;;;;;15.38;8.52;;;;;;;10.83;100.00;101497.97;5197040;28;20546;-71
2022/06/21 01:57:18;;;;;;;13.88;8.77;;;;;;;10.82;100.00;101497.13;5197163;28;20049;-71
2022/06/21 01:59:51;;;;;;;15.18;8.13;;;;;;;10.77;100.00;101486.75;5195515;28;20038;-71
2022/06/21 02:02:29;;;;;;;15.90;8.27;;;;;;;10.78;100.00;101493.81;5197991;28;20029;-71
2022/06/21 02:05:05;;;;;;;15.10;8.38;;;;;;;10.75;100.00;101491.34;5196280;28;20489;-71
2022/06/21 02:07:43;;;;;;;12.60;8.15;;;;;;;10.76;100.00;101501.06;5197977;28;20474;-71
2022/06/21 02:10:22;;;;;;;16.60;8.27;;;;;;;10.75;100.00;101490.50;5195951;28;20499;-71
2022/06/21 02:13:00;;;;;;;14.57;8.68;;;;;;;10.69;100.00;101482.91;5194605;28;20096;-71
2022/06/21 02:15:46;;;;;;;16.98;8.50;;;;;;;10.72;100.00;101494.22;5189507;28;20137;-72
2022/06/21 02:18:20;;;;;;;13.75;8.90;;;;;;;10.74;100.00;101486.13;5190691;28;21207;-71
2022/06/21 02:21:01;;;;;;;15.65;9.13;;;;;;;10.64;100.00;101485.00;5197199;28;20067;-71
2022/06/21 02:23:32;;;;;;;13.40;8.30;;;;;;;10.59;100.00;101478.16;5190805;28;20038;-72
2022/06/21 02:26:03;;;;;;;16.98;8.50;;;;;;;10.68;100.00;101474.03;5188541;28;20092;-71
2022/06/21 02:28:35;;;;;;;16.00;8.90;;;;;;;10.56;100.00;101473.03;5192902;28;20532;-71
2022/06/21 02:31:08;;;;;;;17.23;9.18;;;;;;;10.68;100.00;101470.50;5187446;28;20546;-72
2022/06/21 02:33:42;;;;;;;13.05;8.63;;;;;;;10.49;100.00;101460.19;5194351;28;20128;-71
2022/06/21 02:36:19;;;;;;;;;;;;;;;10.55;100.00;101449.97;5194671;28;20033;-71
2022/06/21 02:38:57;;;;;;;13.25;8.18;;;;;;;10.36;100.00;101446.84;5202054;28;19928;-72
2022/06/21 02:41:39;;;;;;;12.98;8.43;;;;;;;10.38;100.00;101448.44;5202192;28;20031;-71
2022/06/21 02:44:18;;;;;;;13.82;8.57;;;;;;;10.27;100.00;101458.06;5196944;28;20137;-71
2022/06/21 02:46:55;;;;;;;12.85;9.13;;;;;;;10.19;100.00;101456.75;5197968;28;20385;-72
2022/06/21 02:49:32;;;;;;;13.70;8.73;;;;;;;10.18;100.00;101463.06;5196132;28;20676;-71
2022/06/21 02:52:12;;;;;;;16.67;8.93;;;;;;;10.09;100.00;101463.63;5208813;28;20061;-72
2022/06/21 02:55:22;;;;;;;15.50;8.90;;;;;;;10.14;100.00;101460.66;5197441;28;20030;-71
2022/06/21 02:58:29;;;;;;;15.10;8.77;;;;;;;10.06;100.00;101465.66;5199203;28;20046;-71
2022/06/21 03:01:05;;;;;;;13.27;8.77;;;;;;;10.04;100.00;101471.06;5198086;28;20069;-71
2022/06/21 03:03:36;;;;;;;14.10;8.75;;;;;;;9.95;100.00;101469.88;5200851;28;20410;-71
2022/06/21 03:06:11;;;;;;;14.38;9.00;;;;;;;9.94;100.00;101473.47;5204905;28;20592;-71
2022/06/21 03:08:51;;;;;;;17.63;9.50;;;;;;;9.88;100.00;101463.22;5195229;28;20137;-71
2022/06/21 03:11:28;;;;;;;21.35;9.57;;;;;;;9.97;100.00;101467.97;5195598;28;20138;-71
2022/06/21 03:14:04;;;;;;;17.45;10.20;;;;;;;9.90;100.00;101468.44;5200411;28;20048;-71
2022/06/21 03:16:35;;;;;;;13.43;9.50;;;;;;;9.81;100.00;101470.72;5198119;28;20084;-71
2022/06/21 03:19:39;;;;;;;14.60;10.25;;;;;;;9.87;100.00;101469.47;5188418;28;21633;-71
2022/06/21 03:22:16;;;;;;;15.68;9.45;;;;;;;9.80;100.00;101473.50;5194722;28;20049;-71
2022/06/21 03:24:52;;;;;;;15.70;9.45;;;;;;;9.74;100.00;101472.09;5188631;28;20087;-71
2022/06/21 03:27:47;;;;;;;14.57;9.57;;;;;;;9.77;100.00;101476.34;5191785;28;20038;-71
2022/06/21 03:30:21;;;;;;;16.65;10.15;;;;;;;9.83;100.00;101475.97;5198818;28;20168;-72
2022/06/21 03:32:55;;;;;;;18.10;10.07;;;;;;;9.74;100.00;101476.53;5194539;28;20444;-71
2022/06/21 03:35:31;;;;;;;17.00;10.30;;;;;;;9.66;100.00;101466.34;5194583;28;20033;-71
2022/06/21 03:38:03;;;;;;;15.88;11.77;;;;;;;9.84;100.00;101453.69;5197659;28;20065;-71
2022/06/21 03:43:53;;;;;;;19.58;11.23;;;;;;;9.84;100.00;101448.38;5197114;28;20038;-71
2022/06/21 03:46:31;;;;;;;15.38;10.68;;;;;;;9.77;100.00;101445.22;5201743;28;20036;-71
2022/06/21 03:49:15;;;;;;;18.08;11.57;;;;;;;9.75;100.00;101439.13;5216574;28;20009;-71
2022/06/21 03:51:48;;;;;;;20.77;11.32;;;;;;;9.76;100.00;101439.97;5201251;28;20515;-71
2022/06/21 03:54:31;;;;;;;19.95;11.98;;;;;;;9.72;100.00;101435.81;5210648;28;20389;-71
2022/06/21 03:57:09;;;;;;;19.95;12.18;;;;;;;9.69;100.00;101436.88;5206396;28;20048;-71
2022/06/21 03:59:47;;;;;;;16.15;11.45;;;;;;;9.79;100.00;101440.66;5214506;28;20025;-71
2022/06/21 04:02:26;;;;;;;17.27;12.10;;;;;;;9.72;100.00;101454.47;5212703;28;20041;-71
2022/06/21 04:05:05;;;;;;;19.15;12.23;;;;;;;9.65;100.00;101458.50;5197594;28;20036;-71
2022/06/21 04:07:54;;;;;;;21.27;12.52;;;;;;;9.65;100.00;101455.81;5220245;28;20029;-71
2022/06/21 04:10:48;;;;;;;22.50;12.65;;;;;;;9.60;100.00;101450.75;5204032;28;20387;-71
2022/06/21 04:13:34;;;;;;;19.85;11.95;;;;;;;9.61;100.00;101453.34;5205607;28;20029;-71
2022/06/21 04:16:38;;;;;;;16.40;10.95;;;;;;;9.63;100.00;101455.91;5209371;28;20064;-71
2022/06/21 04:19:20;;;;;;;18.25;11.63;;;;;;;9.63;100.00;101453.25;5198647;28;20085;-71
2022/06/21 04:22:08;;;;;;;16.52;11.77;;;;;;;9.65;100.00;101450.50;5206220;28;20133;-71
2022/06/21 04:24:53;;;;;;;21.23;12.23;;;;;;;9.60;100.00;101446.28;5197046;28;22274;-71
2022/06/21 04:27:31;;;;;;;15.75;12.32;;;;;;;9.75;100.00;101449.78;5204719;28;20112;-71
2022/06/21 04:30:11;;;;;;;17.38;12.13;;;;;;;9.71;100.00;101442.97;5206275;28;20018;-71
2022/06/21 04:33:24;;;;;;;16.88;12.50;;;;;;;9.74;100.00;101432.13;5205704;28;20028;-71
2022/06/21 04:36:09;;;;;;;20.55;13.23;;;;;;;9.82;100.00;101429.81;5210143;28;20587;-71
2022/06/21 04:39:07;;;;;;;17.52;12.68;;;;;;;9.93;100.00;101426.47;5208614;28;20040;-71
2022/06/21 04:41:46;;;;;;;18.92;13.40;;;;;;;10.06;100.00;101426.50;5206198;28;20100;-71
2022/06/21 04:44:22;;;;;;;17.13;12.85;;;;;;;10.22;100.00;101423.72;5209043;28;20744;-71
2022/06/21 04:47:05;;;;;;;16.25;12.93;;;;;;;10.19;100.00;101416.75;5210160;28;20034;-71
2022/06/21 04:49:45;;;;;;;21.35;13.23;;;;;;;10.23;100.00;101413.88;5213656;28;20060;-71
2022/06/21 04:52:20;;;;;;;21.30;12.48;;;;;;;10.30;100.00;101415.19;5210649;28;20041;-71
2022/06/21 04:54:51;;;;;;;16.70;12.48;;;;;;;10.41;100.00;101426.03;5213029;28;20120;-71
2022/06/21 04:57:31;;;;;;;17.30;12.20;;;;;;;10.38;100.00;101420.91;5210959;28;20408;-71
2022/06/21 05:00:14;;;;;;;17.88;11.80;;;;;;;10.42;100.00;101414.41;5202569;28;20026;-71
2022/06/21 05:02:48;;;;;;;16.27;11.52;;;;;;;10.47;100.00;101408.75;5203382;28;20955;-72
2022/06/21 05:05:25;;;;;;;;;;;;;;;10.49;100.00;101418.38;5202498;28;20029;-72
2022/06/21 05:08:19;;;;;;;18.27;11.07;;;;;;;10.57;100.00;101424.06;5204643;28;19924;-72
2022/06/21 05:10:56;;;;;;;19.05;11.40;;;;;;;10.61;100.00;101415.84;5201376;28;20030;-71
2022/06/21 05:13:53;;;;;;;18.58;10.65;;;;;;;10.66;100.00;101425.25;5201753;28;20054;-72
2022/06/21 05:16:33;;;;;;;15.13;10.73;;;;;;;10.66;100.00;101419.91;5205250;28;20388;-71
2022/06/21 05:19:16;;;;;;;13.75;9.68;;;;;;;10.65;100.00;101409.34;5198131;28;20065;-71
2022/06/21 05:21:56;;;;;;;13.77;9.73;;;;;;;10.73;100.00;101407.00;5209446;28;20040;-71
2022/06/21 05:24:28;;;;;;;17.80;9.95;;;;;;;10.71;100.00;101401.75;5203710;28;20484;-71
2022/06/21 05:27:08;;;;;;;16.13;9.68;;;;;;;10.80;100.00;101402.97;5210481;28;20113;-72
2022/06/21 05:30:03;;;;;;;14.68;7.72;;;;;;;10.85;100.00;101411.50;5207300;28;20044;-71
2022/06/21 05:32:48;;;;;;;15.45;8.80;;;;;;;10.89;100.00;101422.81;5208964;28;20061;-71
2022/06/21 05:35:26;;;;;;;15.20;9.55;;;;;;;11.04;100.00;101421.75;5204535;28;20064;-71
2022/06/21 05:38:02;;;;;;;16.08;7.80;;;;;;;11.11;100.00;101432.88;5203321;28;20038;-71
2022/06/21 05:40:38;;;;;;;11.27;7.28;;;;;;;11.18;100.00;101437.69;5205021;28;20129;-71
2022/06/21 05:43:14;;;;;;;10.88;7.00;;;;;;;11.29;100.00;101433.41;5210044;28;20064;-71
2022/06/21 05:45:52;;;;;;;14.60;6.70;;;;;;;11.31;100.00;101421.66;5197327;28;20030;-71
2022/06/21 05:48:28;;;;;;;13.35;6.82;;;;;;;11.41;100.00;101429.88;5193053;28;20030;-71
2022/06/21 05:51:03;;;;;;;11.00;6.70;;;;;;;11.51;100.00;101430.94;5198912;28;20025;-71
2022/06/21 05:53:39;;;;;;;16.98;7.82;;;;;;;11.55;100.00;101440.44;5201411;28;20618;-71
2022/06/21 05:56:14;;;;;;;11.07;6.13;;;;;;;11.65;100.00;101454.00;5200211;28;20389;-71
2022/06/21 05:58:53;;;;;;;12.48;6.13;;;;;;;11.67;100.00;101448.53;5200966;28;20025;-71
2022/06/21 06:01:32;;;;;;;11.75;6.68;;;;;;;11.81;100.00;101453.75;5201368;28;20059;-71
2022/06/21 06:04:25;;;;;;;11.25;6.00;;;;;;;11.85;100.00;101446.34;5201411;28;20037;-71
2022/06/21 06:06:58;;;;;;;10.93;6.00;;;;;;;11.89;100.00;101454.09;5205023;28;20112;-71
2022/06/21 06:09:39;;;;;;;8.48;5.63;;;;;;;11.96;100.00;101455.34;5200968;28;20022;-72
2022/06/21 06:12:24;;;;;;;12.57;6.43;;;;;;;12.06;100.00;101460.91;5202127;28;20035;-72
2022/06/21 06:15:04;;;;;;;11.63;6.15;;;;;;;12.09;100.00;101459.81;5197141;28;20484;-71
2022/06/21 06:17:56;;;;;;;10.05;5.25;;;;;;;12.23;100.00;101462.31;5199311;28;20041;-71
2022/06/21 06:20:37;;;;;;;8.88;5.43;;;;;;;12.34;100.00;101459.69;5198857;28;20088;-71
2022/06/21 06:23:24;;;;;;;11.10;5.63;;;;;;;12.47;100.00;101465.00;5197324;28;20026;-71
2022/06/21 06:26:04;;;;;;;11.45;5.00;;;;;;;12.69;99.53;101469.59;5202949;28;20537;-72
2022/06/21 06:28:45;;;;;;;10.63;4.90;;;;;;;12.98;97.28;101471.88;5205899;28;20029;-71
2022/06/21 06:31:22;;;;;;;11.27;4.80;;;;;;;13.02;98.21;101478.72;5196359;28;20037;-72
2022/06/21 06:34:02;;;;;;;10.45;4.40;;;;;;;13.14;97.04;101480.44;5202732;28;20038;-71
2022/06/21 06:36:38;;;;;;;10.52;4.35;;;;;;;13.28;95.50;101470.50;5194129;28;20029;-72
2022/06/21 06:39:31;;;;;;;7.57;4.10;;;;;;;13.39;95.49;101470.53;5201925;28;20041;-72
2022/06/21 06:42:12;;;;;;;8.07;3.50;;;;;;;13.47;95.60;101465.41;5203297;28;20065;-72
2022/06/21 06:45:15;;;;;;;10.13;3.47;;;;;;;13.69;94.74;101477.13;5202166;28;20034;-72
2022/06/21 06:47:55;;;;;;;8.35;3.40;;;;;;;13.86;89.77;101484.66;5205520;28;20038;-72
2022/06/21 06:50:33;;;;;;;10.27;3.75;;;;;;;14.05;90.89;101486.72;5202047;28;20083;-72
2022/06/21 06:53:26;;;;;;;8.40;3.42;;;;;;;14.19;90.67;101482.94;5196809;28;20030;-72
2022/06/21 06:56:21;;;;;;;10.93;3.95;;;;;;;14.36;90.70;101486.06;5201018;28;20048;-72
2022/06/21 06:59:06;;;;;;;6.63;3.25;;;;;;;14.54;87.60;101484.53;5196283;28;20069;-72
2022/06/21 07:02:02;;;;;;;7.00;2.95;;;;;;;14.66;88.26;101483.53;5202495;28;20093;-72
2022/06/21 07:04:38;;;;;;;7.55;3.95;;;;;;;14.82;85.69;101479.56;5200193;28;20495;-72
2022/06/21 07:07:20;;;;;;;6.78;3.72;;;;;;;14.96;86.43;101476.56;5198809;28;20082;-72
2022/06/21 07:09:57;;;;;;;10.35;3.90;;;;;;;15.28;81.98;101471.13;5208471;28;20607;-72
2022/06/21 07:12:30;;;;;;;7.78;3.78;;;;;;;15.36;82.28;101474.97;5220232;28;20033;-72
2022/06/21 07:15:02;;;;;;;5.75;3.28;;;;;;;15.58;79.73;101487.41;5208316;28;20026;-72
2022/06/21 07:17:38;;;;;;;9.50;3.78;;;;;;;15.68;79.77;101481.06;5206584;28;20037;-72
2022/06/21 07:20:16;;;;;;;8.35;3.75;;;;;;;15.80;79.62;101473.81;5197955;28;20096;-72
2022/06/21 07:22:48;;;;;;;7.82;3.47;;;;;;;15.99;79.15;101464.94;5211213;28;20029;-72
2022/06/21 07:25:23;;;;;;;9.55;3.80;;;;;;;16.10;77.00;101465.81;5205333;28;20489;-72
2022/06/21 07:28:09;;;;;;;7.80;3.45;;;;;;;16.20;77.38;101462.16;5204620;28;20037;-72
2022/06/21 07:30:46;;;;;;;10.45;3.80;;;;;;;16.35;78.03;101461.72;5206912;28;20049;-72
2022/06/21 07:33:22;;;;;;;10.10;3.60;;;;;;;16.43;75.54;101469.97;5201311;28;20034;-72
2022/06/21 07:35:59;;;;;;;9.68;4.05;;;;;;;16.46;77.31;101470.53;5200442;28;20662;-72
2022/06/21 07:38:55;;;;;;;8.02;3.45;;;;;;;16.64;76.78;101478.78;5208223;28;20103;-72
2022/06/21 07:41:36;;;;;;;7.47;3.53;;;;;;;16.85;75.25;101472.41;5201184;28;20035;-72
2022/06/21 07:44:14;;;;;;;10.85;3.70;;;;;;;16.78;73.43;101477.50;5211722;28;20048;-72
2022/06/21 07:46:51;;;;;;;10.02;3.72;;;;;;;16.92;71.55;101473.53;5210668;28;20030;-72
2022/06/21 07:49:37;;;;;;;10.07;3.58;;;;;;;16.99;71.93;101469.28;5208358;28;20025;-72
2022/06/21 07:52:29;;;;;;;7.38;3.40;;;;;;;17.11;71.59;101466.44;5209297;28;20041;-72
2022/06/21 07:55:06;;;;;;;10.57;4.35;;;;;;;17.33;70.66;101465.22;5211813;28;20030;-72
2022/06/21 07:57:44;;;;;;;6.95;2.65;;;;;;;17.33;70.40;101463.38;5212808;28;20026;-72
2022/06/21 08:00:19;;;;;;;8.25;3.40;;;;;;;17.53;67.54;101452.53;5206059;28;20030;-72
2022/06/21 08:08:50;;;;;;;7.35;2.78;;;;;;;18.02;63.14;101451.34;5209592;28;20037;-72
2022/06/21 08:11:35;;;;;;;6.63;3.00;;;;;;;18.05;67.89;101450.16;5204904;28;20040;-72
2022/06/21 08:14:08;;;;;;;9.93;3.20;;;;;;;18.14;66.41;101460.06;5205407;28;20466;-72
2022/06/21 08:16:53;;;;;;;8.27;3.17;;;;;;;17.93;66.13;101462.16;5209298;28;20025;-72
2022/06/21 08:19:56;;;;;;;7.75;3.38;;;;;;;18.25;65.17;101456.28;5196356;28;20121;-72
2022/06/21 08:22:36;;;;;;;7.32;3.33;;;;;;;18.20;64.98;101451.34;5192421;28;20065;-72
2022/06/21 08:25:41;;;;;;;8.82;3.17;;;;;;;18.41;66.99;101436.72;5215536;28;20030;-72
2022/06/21 08:28:37;;;;;;;8.63;3.20;;;;;;;18.42;63.90;101428.41;5206630;28;20372;-72
2022/06/21 08:31:21;;;;;;;7.20;3.10;;;;;;;18.50;63.01;101421.41;5204178;28;20022;-72
2022/06/21 08:34:15;;;;;;;8.93;2.75;;;;;;;18.45;62.72;101410.19;5207973;28;20041;-72
2022/06/21 08:36:53;;;;;;;7.72;2.60;;;;;;;18.54;62.47;101417.38;5215296;28;20117;-72
2022/06/21 08:39:34;;;;;;;9.40;3.72;;;;;;;18.70;63.87;101428.34;5206560;28;20468;-72
2022/06/21 08:42:45;;;;;;;8.00;2.90;;;;;;;18.75;60.74;101406.22;5215295;28;20030;-72
2022/06/21 08:45:41;;;;;;;6.25;3.00;;;;;;;18.91;61.03;101397.44;5205721;28;20554;-72
2022/06/21 08:48:19;;;;;;;8.38;3.35;;;;;;;18.83;60.30;101394.66;5205107;28;20029;-72
2022/06/21 08:51:11;;;;;;;7.47;3.05;;;;;;;18.91;59.69;101389.34;5209173;28;20037;-72
2022/06/21 08:54:05;;;;;;;7.85;3.25;;;;;;;18.95;59.02;101377.19;5208619;28;20428;-72
2022/06/21 08:57:15;;;;;;;6.57;3.50;;;;;;;19.12;62.89;101375.41;5212301;28;20068;-72
2022/06/21 09:00:08;;;;;;;7.30;3.13;;;;;;;18.96;59.40;101385.13;5208188;28;20052;-72
2022/06/21 09:03:03;;;;;;;5.70;2.92;;;;;;;19.09;61.42;101379.28;5203144;28;20030;-72
2022/06/21 09:05:41;;;;;;;9.15;3.72;;;;;;;19.00;59.43;101378.41;5213656;28;20022;-72
2022/06/21 09:08:32;;;;;;;10.55;3.95;;;;;;;19.24;61.03;101371.44;5209301;28;20044;-72
2022/06/21 09:11:23;;;;;;;7.05;3.47;;;;;;;19.27;61.05;101371.13;5208635;28;20082;-72
2022/06/21 09:14:19;;;;;;;7.20;3.30;;;;;;;19.56;59.23;101369.88;5203933;28;20143;-72
2022/06/21 09:16:50;;;;;;;6.07;2.95;;;;;;;19.46;56.92;101359.16;5204615;28;20030;-72
2022/06/21 09:19:43;;;;;;;11.45;3.40;;;;;;;19.54;57.67;101358.34;5203250;28;20042;-72
2022/06/21 09:22:53;;;;;;;8.02;3.28;;;;;;;19.62;56.48;101358.41;5200227;28;20388;-72
2022/06/21 09:25:36;;;;;;;6.43;3.50;;;;;;;19.55;55.71;101351.94;5207155;28;20018;-72
2022/06/21 09:28:28;;;;;;;10.27;3.35;;;;;;;19.78;56.58;101357.63;5201430;28;20409;-73
2022/06/21 09:31:10;;;;;;;5.45;3.50;;;;;;;19.67;57.11;101347.06;5200152;28;20108;-73
2022/06/21 09:33:59;;;;;;;7.18;3.47;;;;;;;19.73;55.98;101341.88;5207003;28;20408;-73
2022/06/21 09:36:42;;;;;;;5.43;2.97;;;;;;;19.70;56.46;101331.34;5211386;28;20030;-73
2022/06/21 09:39:22;;;;;;;6.10;3.17;;;;;;;19.50;55.34;101333.50;5209558;28;20435;-72
2022/06/21 09:42:14;;;;;;;7.45;3.63;;;;;;;19.50;55.77;101344.31;5199967;28;20085;-73
2022/06/21 09:45:11;;;;;;;8.35;3.97;;;;;;;19.47;56.72;101352.75;5207107;28;20030;-73
2022/06/21 09:48:04;;;;;;;6.90;3.15;;;;;;;19.77;57.74;101355.91;5206802;28;20060;-73
2022/06/21 09:51:05;;;;;;;5.75;2.95;;;;;;;19.72;54.07;101342.03;5201310;28;20516;-73
2022/06/21 09:54:14;;;;;;;6.82;2.50;;;;;;;19.84;55.97;101338.00;5205615;28;20469;-70
2022/06/21 09:57:20;;;;;;;8.70;3.80;;;;;;;19.84;55.52;101332.59;5202193;28;20030;-70
2022/06/21 10:00:04;;;;;;;6.85;3.33;;;;;;;19.64;53.33;101334.72;5206115;28;20668;-70
2022/06/21 10:03:01;;;;;;;7.88;3.05;;;;;;;19.65;53.95;101332.84;5203628;28;20025;-70
2022/06/21 10:05:44;;;;;;;8.73;3.70;;;;;;;19.36;53.60;101348.47;5201919;28;20034;-71
2022/06/21 10:08:28;;;;;;;7.57;3.88;;;;;;;19.30;54.29;101343.72;5206333;28;20026;-69
2022/06/21 10:11:09;;;;;;;7.13;3.50;;;;;;;19.59;55.70;101340.59;5205643;28;20452;-70
2022/06/21 10:13:49;;;;;;;9.52;3.78;;;;;;;19.58;53.72;101341.63;5201779;28;20030;-70
2022/06/21 10:16:26;;;;;;;7.40;3.28;;;;;;;19.89;55.48;101327.53;5204734;28;20029;-70
2022/06/21 10:19:15;;;;;;;5.85;2.90;;;;;;;20.04;51.96;101341.25;5201733;28;20080;-70
2022/06/21 10:22:19;;;;;;;6.45;2.80;;;;;;;20.32;55.34;101339.06;5214854;28;20056;-70
2022/06/21 10:25:14;;;;;;;8.60;3.33;;;;;;;20.47;55.65;101357.38;5210884;28;20482;-70
2022/06/21 10:28:09;;;;;;;6.82;3.17;;;;;;;20.70;54.43;101355.69;5205831;28;21125;-70
2022/06/21 10:31:08;;;;;;;7.10;3.03;;;;;;;20.96;54.88;101346.50;5211335;28;20034;-71
2022/06/21 10:33:39;;;;;;;10.13;3.72;;;;;;;21.08;52.51;101344.25;5207704;28;20048;-71
2022/06/21 10:36:31;;;;;;;7.90;4.20;;;;;;;21.12;52.07;101340.16;5213151;28;20030;-72
2022/06/21 10:39:13;;;;;;;8.63;3.70;;;;;;;21.14;53.33;101357.94;5202023;28;20034;-72
2022/06/21 10:45:20;;;;;;;5.85;3.90;;;;;;;20.61;49.85;101347.72;5203960;28;20045;-73
2022/06/21 10:48:03;;;;;;;7.95;3.80;;;;;;;20.87;51.30;101352.94;5203156;28;20065;-72
2022/06/21 10:50:52;;;;;;;8.25;3.80;;;;;;;20.70;50.93;101352.97;5204659;28;20044;-73
2022/06/21 10:54:01;;;;;;;8.82;3.97;;;;;;;20.64;50.30;101348.22;5204553;28;20026;-73
2022/06/21 11:02:57;;;;;;;7.07;3.53;;;;;;;21.17;52.79;101362.19;5208486;28;20461;-72
2022/06/21 11:05:43;;;;;;;8.10;3.60;;;;;;;21.18;50.02;101373.91;5205850;28;20139;-72
2022/06/21 11:08:33;;;;;;;7.65;3.67;;;;;;;21.27;50.59;101370.13;5208812;28;20521;-73
2022/06/21 11:11:26;;;;;;;7.53;3.45;;;;;;;21.27;51.97;101370.13;5209619;28;20384;-72
2022/06/21 11:14:14;;;;;;;7.68;3.90;;;;;;;21.20;49.09;101355.56;5203458;28;20036;-72
2022/06/21 11:17:04;;;;;;;8.50;4.15;;;;;;;21.05;52.24;101350.00;5213540;28;20104;-73
2022/06/21 11:20:11;;;;;;;6.95;4.05;;;;;;;21.17;50.78;101354.06;5205894;28;20050;-72
2022/06/21 11:22:58;;;;;;;7.20;4.00;;;;;;;21.31;51.97;101350.59;5212996;28;20026;-73
2022/06/21 11:25:55;;;;;;;9.85;4.35;;;;;;;21.42;52.22;101351.22;5203551;28;20030;-73
2022/06/21 11:28:41;;;;;;;6.18;4.07;;;;;;;21.28;52.87;101347.38;5212285;28;20130;-73
2022/06/21 11:31:30;;;;;;;7.72;3.70;;;;;;;21.53;53.86;101348.16;5201964;28;20157;-73
2022/06/21 11:34:38;;;;;;;9.07;4.60;;;;;;;21.41;51.28;101344.97;5201424;28;20029;-73
2022/06/21 11:37:31;;;;;;;9.70;4.20;;;;;;;21.30;52.27;101350.78;5199798;28;20049;-72
2022/06/21 11:40:27;;;;;;;6.15;3.75;;;;;;;21.41;49.86;101344.97;5205638;28;20052;-72
2022/06/21 11:43:02;;;;;;;6.32;3.88;;;;;;;21.29;49.33;101330.94;5214093;28;20030;-73
2022/06/21 11:45:39;;;;;;;8.68;4.07;;;;;;;21.33;47.76;101334.16;5200124;28;20029;-72
2022/06/21 11:48:21;;;;;;;5.65;3.40;;;;;;;21.35;47.12;101334.81;5207141;28;21039;-72
2022/06/21 11:51:04;;;;;;;8.10;4.28;;;;;;;21.18;49.39;101334.03;5207428;28;20034;-72
2022/06/21 11:53:45;;;;;;;7.40;3.75;;;;;;;21.57;49.73;101322.34;5208451;28;20025;-72
2022/06/21 11:56:38;;;;;;;7.20;4.40;;;;;;;21.42;49.00;101329.50;5206884;28;20451;-73
2022/06/21 11:59:12;;;;;;;8.02;4.32;;;;;;;21.68;48.64;101335.50;5210884;28;20082;-73
2022/06/21 12:01:53;;;;;;;11.40;4.55;;;;;;;21.73;48.49;101326.84;5210640;28;20022;-72
2022/06/21 12:05:03;;;;;;;7.00;3.88;;;;;;;22.02;48.39;101323.41;5215524;28;20037;-70
2022/06/21 12:07:39;;;;;;;5.90;3.50;;;;;;;22.11;47.64;101321.47;5204612;28;20033;-70
2022/06/21 12:10:28;;;;;;;9.55;3.95;;;;;;;22.40;46.11;101307.16;5209039;28;20023;-70
2022/06/21 12:13:24;;;;;;;7.90;4.03;;;;;;;22.50;45.69;101315.06;5206132;28;20068;-71
2022/06/21 12:16:15;;;;;;;6.18;3.05;;;;;;;22.50;45.14;101315.91;5208840;28;20030;-73
2022/06/21 12:18:56;;;;;;;6.25;3.22;;;;;;;22.52;45.23;101308.41;5214145;28;20104;-71
2022/06/21 12:21:31;;;;;;;6.07;3.10;;;;;;;22.73;45.50;101309.56;5213406;28;20034;-71
2022/06/21 12:24:05;;;;;;;7.97;3.67;;;;;;;22.55;44.68;101299.06;5206075;28;20041;-71
2022/06/21 12:26:42;;;;;;;7.95;3.55;;;;;;;22.65;44.52;101299.63;5209526;28;20080;-71
2022/06/21 12:29:16;;;;;;;5.65;3.30;;;;;;;22.59;47.45;101294.06;5216565;28;20042;-71
2022/06/21 12:31:51;;;;;;;5.20;2.85;;;;;;;22.59;42.27;101297.66;5201783;28;20495;-71
2022/06/21 12:34:48;;;;;;;6.72;3.08;;;;;;;22.81;45.06;101295.03;5210987;28;20060;-71
2022/06/21 12:37:24;;;;;;;7.75;3.10;;;;;;;22.56;41.80;101291.72;5209058;28;20926;-70
2022/06/21 12:40:05;;;;;;;7.97;2.80;;;;;;;22.39;42.05;101289.16;5201168;28;20079;-70
2022/06/21 12:42:58;;;;;;;5.60;2.90;;;;;;;22.52;43.45;101297.53;5209707;28;20034;-71
2022/06/21 12:45:35;;;;;;;5.53;2.30;;;;;;;22.45;41.03;101293.84;5211722;28;20095;-70
2022/06/21 12:48:25;;;;;;;6.30;2.85;;;;;;;22.57;45.04;101293.41;5209722;28;20034;-71